Time;durP1;ratioP1;P1;durP2;ratioP2;P2;SDS_P1;SDS_P2;PMS_P1;PMS_P2;Temp;Humidity;BMP_temperature;BMP_pressure;BME280_temperature;BME280_humidity;BME280_pressure;Samples;Min_cycle;Max_cycle;Signal;HPM_P1;HPM_P2
2021/05/27 00:04:26;;;;;;;15.03;5.10;;;;;;;;;;13073081;22;20184;-80
2021/05/27 00:09:29;;;;;;;17.57;5.23;;;;;;;;;;13073243;22;20215;-80
2021/05/27 00:14:32;;;;;;;14.20;5.07;;;;;;;;;;13071868;22;20653;-80
2021/05/27 00:19:34;;;;;;;18.13;5.00;;;;;;;;;;13072591;22;20216;-79
2021/05/27 00:24:37;;;;;;;15.60;4.90;;;;;;;;;;13073186;22;20604;-79
2021/05/27 00:29:40;;;;;;;16.40;4.57;;;;;;;;;;13074404;22;20200;-79
2021/05/27 00:34:42;;;;;;;13.40;4.67;;;;;;;;;;13095907;22;20349;-79
2021/05/27 00:39:45;;;;;;;13.07;4.33;;;;;;;;;;13080510;22;20172;-79
2021/05/27 00:44:57;;;;;;;14.97;4.23;;;;;;;;;;13090246;22;20656;-78
2021/05/27 00:50:00;;;;;;;14.97;4.33;;;;;;;;;;13084412;22;20261;-78
2021/05/27 00:55:03;;;;;;;13.07;4.67;;;;;;;;;;13077465;22;20191;-80
2021/05/27 01:00:08;;;;;;;19.27;5.00;;;;;;;;;;13078720;22;20173;-80
2021/05/27 01:05:11;;;;;;;17.27;4.77;;;;;;;;;;13095395;22;20200;-78
2021/05/27 01:10:14;;;;;;;14.43;5.20;;;;;;;;;;13099217;22;20219;-78
2021/05/27 01:15:28;;;;;;;15.50;5.10;;;;;;;;;;13076312;22;20174;-79
2021/05/27 01:20:31;;;;;;;15.23;4.83;;;;;;;;;;13095697;22;20193;-79
2021/05/27 01:25:34;;;;;;;17.40;4.70;;;;;;;;;;13076227;22;20276;-78
2021/05/27 01:30:36;;;;;;;21.57;4.97;;;;;;;;;;13077762;22;20288;-79
2021/05/27 01:35:39;;;;;;;16.63;4.97;;;;;;;;;;13093924;22;20170;-79
2021/05/27 01:40:42;;;;;;;14.50;4.60;;;;;;;;;;13098828;22;20986;-79
2021/05/27 01:45:44;;;;;;;16.93;5.00;;;;;;;;;;13096371;22;20605;-78
2021/05/27 01:50:47;;;;;;;16.13;4.73;;;;;;;;;;13096334;22;20285;-79
2021/05/27 01:55:51;;;;;;;14.67;4.90;;;;;;;;;;13096184;22;20244;-79
2021/05/27 02:00:53;;;;;;;15.83;5.13;;;;;;;;;;13077136;22;20470;-81
2021/05/27 02:05:55;;;;;;;19.37;5.37;;;;;;;;;;13098275;22;20177;-80
2021/05/27 02:10:59;;;;;;;19.23;5.07;;;;;;;;;;13099945;22;20212;-78
2021/05/27 02:16:01;;;;;;;17.23;4.90;;;;;;;;;;13076163;22;20175;-79
2021/05/27 02:21:03;;;;;;;13.40;4.40;;;;;;;;;;13098723;22;20195;-78
2021/05/27 02:26:07;;;;;;;13.00;4.37;;;;;;;;;;13075230;22;20467;-77
2021/05/27 02:31:09;;;;;;;15.40;4.70;;;;;;;;;;13074097;22;20768;-79
2021/05/27 02:36:12;;;;;;;14.33;4.97;;;;;;;;;;13097453;22;20227;-80
2021/05/27 02:41:15;;;;;;;13.80;4.63;;;;;;;;;;13100364;22;20183;-80
2021/05/27 02:46:17;;;;;;;13.57;4.70;;;;;;;;;;13094205;22;20367;-80
2021/05/27 02:51:25;;;;;;;19.20;4.97;;;;;;;;;;13099660;22;20661;-79
2021/05/27 02:56:28;;;;;;;14.70;5.13;;;;;;;;;;13096083;22;20268;-80
2021/05/27 03:01:31;;;;;;;17.23;4.50;;;;;;;;;;13076734;22;20201;-80
2021/05/27 03:06:33;;;;;;;16.37;4.60;;;;;;;;;;13076343;22;20195;-78
2021/05/27 03:11:36;;;;;;;16.33;4.97;;;;;;;;;;13079002;22;20200;-79
2021/05/27 03:16:39;;;;;;;13.93;3.87;;;;;;;;;;13074857;22;20177;-80
2021/05/27 03:21:41;;;;;;;13.53;4.30;;;;;;;;;;13073815;22;20235;-80
2021/05/27 03:26:46;;;;;;;16.90;4.60;;;;;;;;;;13093836;22;20199;-81
2021/05/27 03:31:48;;;;;;;14.90;4.00;;;;;;;;;;13077102;22;20201;-80
2021/05/27 03:36:51;;;;;;;14.97;4.53;;;;;;;;;;13073574;22;20177;-81
2021/05/27 03:41:59;;;;;;;16.60;4.60;;;;;;;;;;13083482;22;20626;-80
2021/05/27 03:47:04;;;;;;;13.30;4.07;;;;;;;;;;13087857;22;20264;-80
2021/05/27 03:52:10;;;;;;;13.97;4.47;;;;;;;;;;13080013;22;20303;-77
2021/05/27 03:57:13;;;;;;;13.53;4.33;;;;;;;;;;13073333;22;20173;-83
2021/05/27 04:02:16;;;;;;;9.93;3.77;;;;;;;;;;13070871;22;20173;-79
2021/05/27 04:07:23;;;;;;;12.53;4.23;;;;;;;;;;13098837;22;20181;-77
2021/05/27 04:17:47;;;;;;;13.53;4.07;;;;;;;;;;13098273;22;20256;-78
2021/05/27 04:22:51;;;;;;;12.30;4.23;;;;;;;;;;13098249;22;20197;-78
2021/05/27 04:27:57;;;;;;;14.00;4.50;;;;;;;;;;13097818;22;20173;-78
2021/05/27 04:33:03;;;;;;;15.97;4.50;;;;;;;;;;13094280;22;20756;-78
2021/05/27 04:38:11;;;;;;;13.40;4.07;;;;;;;;;;13099485;22;20185;-81
2021/05/27 04:43:17;;;;;;;16.30;4.40;;;;;;;;;;13075820;22;20175;-84
2021/05/27 04:48:19;;;;;;;17.57;4.70;;;;;;;;;;13078130;22;20173;-84
2021/05/27 04:53:23;;;;;;;16.43;4.90;;;;;;;;;;13098392;22;20208;-84
2021/05/27 04:58:26;;;;;;;12.73;4.33;;;;;;;;;;13079102;22;20170;-85
2021/05/27 05:03:29;;;;;;;14.97;4.43;;;;;;;;;;13096519;22;20226;-83
2021/05/27 05:08:31;;;;;;;14.23;4.50;;;;;;;;;;13100619;22;20252;-83
2021/05/27 05:13:34;;;;;;;14.43;3.87;;;;;;;;;;13097489;22;20681;-84
2021/05/27 05:18:41;;;;;;;13.33;4.27;;;;;;;;;;13097069;22;20528;-83
2021/05/27 05:23:44;;;;;;;17.10;5.07;;;;;;;;;;13075993;22;20555;-84
2021/05/27 05:28:47;;;;;;;14.97;4.57;;;;;;;;;;13077653;22;20228;-82
2021/05/27 05:33:54;;;;;;;17.47;4.67;;;;;;;;;;13094297;22;20460;-83
2021/05/27 05:38:57;;;;;;;11.70;4.60;;;;;;;;;;13101711;22;20489;-84
2021/05/27 05:44:01;;;;;;;17.13;4.70;;;;;;;;;;13096964;22;20181;-84
2021/05/27 05:49:03;;;;;;;14.93;4.70;;;;;;;;;;13096625;22;20617;-85
2021/05/27 05:54:05;;;;;;;14.03;4.43;;;;;;;;;;13097277;22;20553;-85
2021/05/27 05:59:09;;;;;;;15.50;5.07;;;;;;;;;;13100255;22;20187;-84
2021/05/27 06:04:11;;;;;;;12.67;4.20;;;;;;;;;;13095852;22;20204;-82
2021/05/27 06:09:14;;;;;;;15.00;4.93;;;;;;;;;;13100366;22;20195;-84
2021/05/27 06:14:17;;;;;;;13.87;4.40;;;;;;;;;;13095765;22;20205;-83
2021/05/27 06:19:19;;;;;;;15.70;5.30;;;;;;;;;;13095404;22;20193;-83
2021/05/27 06:24:22;;;;;;;14.97;5.03;;;;;;;;;;13076325;22;20634;-83
2021/05/27 06:29:26;;;;;;;14.70;4.90;;;;;;;;;;13098956;22;20877;-83
2021/05/27 06:34:29;;;;;;;12.67;4.47;;;;;;;;;;13097322;22;20205;-82
2021/05/27 06:39:32;;;;;;;18.33;4.80;;;;;;;;;;13100780;22;20258;-83
2021/05/27 06:44:36;;;;;;;12.93;4.90;;;;;;;;;;13100308;22;20823;-83
2021/05/27 06:49:38;;;;;;;14.43;4.70;;;;;;;;;;13093431;22;20508;-82
2021/05/27 06:54:41;;;;;;;11.30;4.40;;;;;;;;;;13077272;22;20212;-83
2021/05/27 06:59:44;;;;;;;14.63;4.30;;;;;;;;;;13095661;22;20176;-82
2021/05/27 07:04:47;;;;;;;16.60;4.47;;;;;;;;;;13095245;22;20717;-81
2021/05/27 07:09:50;;;;;;;13.20;4.27;;;;;;;;;;13095686;22;20177;-82
2021/05/27 07:14:53;;;;;;;13.70;4.70;;;;;;;;;;13098361;22;20637;-82
2021/05/27 07:19:56;;;;;;;15.93;4.80;;;;;;;;;;13094311;22;20233;-83
2021/05/27 07:24:58;;;;;;;17.70;4.60;;;;;;;;;;13097397;22;20183;-83
2021/05/27 07:30:04;;;;;;;11.90;4.20;;;;;;;;;;13095629;22;20213;-83
2021/05/27 07:35:07;;;;;;;15.43;4.43;;;;;;;;;;13094340;22;20173;-83
2021/05/27 07:40:10;;;;;;;15.30;4.30;;;;;;;;;;13097681;22;20180;-83
2021/05/27 07:45:15;;;;;;;15.80;4.80;;;;;;;;;;13094189;22;20666;-82
2021/05/27 07:50:20;;;;;;;14.13;4.60;;;;;;;;;;13095290;22;20169;-83
2021/05/27 07:55:24;;;;;;;13.77;4.47;;;;;;;;;;13080343;22;20230;-83
2021/05/27 08:00:27;;;;;;;13.47;4.13;;;;;;;;;;13074380;22;20565;-82
2021/05/27 08:05:31;;;;;;;12.80;4.30;;;;;;;;;;13092065;22;20177;-84
2021/05/27 08:10:33;;;;;;;16.33;4.40;;;;;;;;;;13075209;22;20204;-83
2021/05/27 08:15:37;;;;;;;14.80;4.47;;;;;;;;;;13094800;22;20222;-85
2021/05/27 08:20:39;;;;;;;12.53;4.20;;;;;;;;;;13092945;22;20579;-82
2021/05/27 08:25:42;;;;;;;10.83;3.77;;;;;;;;;;13094268;22;20670;-83
2021/05/27 08:30:46;;;;;;;16.37;4.43;;;;;;;;;;13075168;22;20564;-82
2021/05/27 08:35:48;;;;;;;17.00;3.93;;;;;;;;;;13094266;22;20177;-82
2021/05/27 08:40:52;;;;;;;14.57;3.97;;;;;;;;;;13096949;22;20264;-82
2021/05/27 08:45:57;;;;;;;12.77;4.20;;;;;;;;;;13094906;22;20264;-82
2021/05/27 08:51:00;;;;;;;12.50;4.30;;;;;;;;;;13097705;22;20200;-82
2021/05/27 08:56:03;;;;;;;14.57;4.33;;;;;;;;;;13097817;22;20190;-82
2021/05/27 09:01:09;;;;;;;19.27;4.50;;;;;;;;;;13076237;22;20177;-83
2021/05/27 09:06:12;;;;;;;14.90;4.50;;;;;;;;;;13098757;22;20494;-83
2021/05/27 09:11:15;;;;;;;13.40;4.27;;;;;;;;;;13100559;22;20283;-84
2021/05/27 09:16:20;;;;;;;15.67;4.70;;;;;;;;;;13095696;22;20298;-84
2021/05/27 09:21:33;;;;;;;14.53;4.40;;;;;;;;;;13078772;22;20201;-83
2021/05/27 09:26:49;;;;;;;18.30;4.97;;;;;;;;;;13098087;22;20169;-84
2021/05/27 09:31:59;;;;;;;17.30;4.93;;;;;;;;;;13097492;22;20212;-82
2021/05/27 09:37:01;;;;;;;18.80;4.80;;;;;;;;;;13097923;22;20173;-84
2021/05/27 09:42:05;;;;;;;15.73;4.87;;;;;;;;;;13100255;22;20195;-84
2021/05/27 09:47:08;;;;;;;16.60;4.60;;;;;;;;;;13095516;22;20263;-82
2021/05/27 09:52:15;;;;;;;17.17;4.33;;;;;;;;;;13077182;22;20486;-81
2021/05/27 09:57:22;;;;;;;12.53;4.10;;;;;;;;;;13099262;22;20192;-82
2021/05/27 10:02:26;;;;;;;11.70;4.00;;;;;;;;;;13094665;22;20286;-82
2021/05/27 10:07:36;;;;;;;14.87;4.23;;;;;;;;;;13100957;22;20181;-82
2021/05/27 10:12:59;;;;;;;16.00;4.37;;;;;;;;;;13075326;22;20206;-83
2021/05/27 10:18:04;;;;;;;11.27;4.17;;;;;;;;;;13096907;22;20235;-80
2021/05/27 10:23:07;;;;;;;15.70;4.43;;;;;;;;;;13098682;22;20197;-82
2021/05/27 10:28:10;;;;;;;11.90;4.03;;;;;;;;;;13098475;22;20205;-84
2021/05/27 10:33:18;;;;;;;15.93;4.80;;;;;;;;;;13094638;22;20232;-83
2021/05/27 10:38:39;;;;;;;15.83;4.77;;;;;;;;;;13099064;22;20973;-84
2021/05/27 10:43:59;;;;;;;17.50;4.57;;;;;;;;;;13051370;22;20184;-82
2021/05/27 10:49:03;;;;;;;16.60;5.50;;;;;;;;;;13097655;22;20589;-82
2021/05/27 10:54:07;;;;;;;16.10;4.90;;;;;;;;;;13096447;22;20632;-83
2021/05/27 10:59:13;;;;;;;13.77;4.13;;;;;;;;;;13098933;22;20196;-83
2021/05/27 11:04:23;;;;;;;16.53;4.73;;;;;;;;;;13095982;22;20657;-83
2021/05/27 11:09:37;;;;;;;17.00;5.20;;;;;;;;;;13099949;22;20173;-83
2021/05/27 11:14:41;;;;;;;12.90;4.40;;;;;;;;;;13097517;22;20208;-83
2021/05/27 11:19:48;;;;;;;14.27;3.87;;;;;;;;;;13099716;22;20271;-83
2021/05/27 11:25:06;;;;;;;14.10;3.33;;;;;;;;;;13097707;22;20524;-83
2021/05/27 11:30:15;;;;;;;9.30;3.17;;;;;;;;;;13099679;22;20172;-81
2021/05/27 11:35:19;;;;;;;11.27;3.60;;;;;;;;;;13093140;22;20201;-82
2021/05/27 11:40:22;;;;;;;12.53;3.90;;;;;;;;;;13097518;22;20173;-83
2021/05/27 11:45:25;;;;;;;11.77;3.50;;;;;;;;;;13097485;22;20177;-83
2021/05/27 11:50:29;;;;;;;12.80;3.70;;;;;;;;;;13073415;22;20251;-81
2021/05/27 11:55:32;;;;;;;11.37;3.60;;;;;;;;;;13097767;22;20200;-83
2021/05/27 12:00:35;;;;;;;14.57;3.33;;;;;;;;;;13096591;22;20688;-83
2021/05/27 12:05:38;;;;;;;8.40;2.87;;;;;;;;;;13072530;22;20654;-83
2021/05/27 12:10:46;;;;;;;12.47;2.87;;;;;;;;;;13096510;22;20177;-82
2021/05/27 12:15:54;;;;;;;14.03;3.50;;;;;;;;;;13095076;22;20243;-83
2021/05/27 12:20:57;;;;;;;10.23;2.80;;;;;;;;;;13097634;22;20258;-83
2021/05/27 12:26:00;;;;;;;11.77;3.20;;;;;;;;;;13096063;22;20664;-83
2021/05/27 12:31:03;;;;;;;12.60;3.10;;;;;;;;;;13099261;22;20255;-83
2021/05/27 12:36:07;;;;;;;10.13;3.00;;;;;;;;;;13077735;22;20184;-83
2021/05/27 12:41:10;;;;;;;10.50;2.80;;;;;;;;;;13100413;22;20208;-83
2021/05/27 12:46:14;;;;;;;8.63;2.70;;;;;;;;;;13095984;22;20196;-80
2021/05/27 12:51:17;;;;;;;7.33;2.60;;;;;;;;;;13100410;22;20169;-80
2021/05/27 12:56:22;;;;;;;10.67;2.67;;;;;;;;;;13098021;22;20597;-81
2021/05/27 13:01:31;;;;;;;7.27;2.40;;;;;;;;;;13097331;22;20180;-83
2021/05/27 13:06:35;;;;;;;10.33;2.57;;;;;;;;;;13099757;22;20176;-81
2021/05/27 13:11:38;;;;;;;7.30;2.30;;;;;;;;;;13100213;22;20205;-82
2021/05/27 13:16:43;;;;;;;9.23;2.50;;;;;;;;;;13094675;22;20173;-82
2021/05/27 13:21:47;;;;;;;9.27;2.30;;;;;;;;;;13078815;22;20197;-82
2021/05/27 13:26:59;;;;;;;6.67;2.00;;;;;;;;;;13096927;22;20178;-83
2021/05/27 13:32:02;;;;;;;7.20;2.73;;;;;;;;;;13097879;22;20224;-82
2021/05/27 13:37:05;;;;;;;8.40;2.30;;;;;;;;;;13076109;22;20179;-82
2021/05/27 13:42:08;;;;;;;7.87;2.07;;;;;;;;;;13077286;22;20169;-82
2021/05/27 13:47:10;;;;;;;5.17;1.90;;;;;;;;;;13096492;22;20181;-83
2021/05/27 13:52:14;;;;;;;7.03;2.00;;;;;;;;;;13077951;22;20917;-81
2021/05/27 13:57:17;;;;;;;5.63;2.03;;;;;;;;;;13095691;22;20581;-81
2021/05/27 14:02:19;;;;;;;8.70;2.20;;;;;;;;;;13076459;22;21000;-81
2021/05/27 14:07:22;;;;;;;6.00;2.13;;;;;;;;;;13097686;22;20203;-82
2021/05/27 14:12:25;;;;;;;7.00;2.07;;;;;;;;;;13100003;22;20200;-82
2021/05/27 14:17:27;;;;;;;8.07;2.23;;;;;;;;;;13096236;22;20173;-81
2021/05/27 14:22:31;;;;;;;7.77;2.27;;;;;;;;;;13078957;22;20287;-82
2021/05/27 14:27:33;;;;;;;7.70;2.40;;;;;;;;;;13097535;22;20220;-82
2021/05/27 14:32:37;;;;;;;10.50;2.40;;;;;;;;;;13096782;22;20201;-82
2021/05/27 14:37:40;;;;;;;8.57;2.30;;;;;;;;;;13097990;22;20200;-81
2021/05/27 14:42:43;;;;;;;6.53;2.20;;;;;;;;;;13076361;22;20259;-82
2021/05/27 14:47:46;;;;;;;7.80;2.20;;;;;;;;;;13095203;22;20246;-80
2021/05/27 14:52:49;;;;;;;11.87;2.47;;;;;;;;;;13095288;22;20208;-81
2021/05/27 14:57:52;;;;;;;8.30;1.90;;;;;;;;;;13097839;22;20236;-81
2021/05/27 15:02:54;;;;;;;8.10;2.37;;;;;;;;;;13093805;22;20169;-81
2021/05/27 15:07:58;;;;;;;4.90;1.90;;;;;;;;;;13097933;22;20183;-82
2021/05/27 15:13:00;;;;;;;4.43;1.93;;;;;;;;;;13095226;22;20853;-80
2021/05/27 15:18:03;;;;;;;7.83;2.20;;;;;;;;;;13095668;22;20307;-81
2021/05/27 15:23:06;;;;;;;9.10;2.30;;;;;;;;;;13096516;22;20702;-82
2021/05/27 15:28:09;;;;;;;6.73;2.20;;;;;;;;;;13075855;22;20169;-81
2021/05/27 15:33:11;;;;;;;13.27;2.80;;;;;;;;;;13093421;22;20208;-81
2021/05/27 15:38:14;;;;;;;7.97;2.27;;;;;;;;;;13097245;22;20847;-81
2021/05/27 15:43:17;;;;;;;10.93;2.30;;;;;;;;;;13096314;22;20332;-80
2021/05/27 15:48:20;;;;;;;5.53;1.87;;;;;;;;;;13097716;22;20260;-81
2021/05/27 15:53:24;;;;;;;11.33;3.20;;;;;;;;;;13075374;22;20672;-81
2021/05/27 15:58:26;;;;;;;5.63;2.00;;;;;;;;;;13098745;22;20618;-81
2021/05/27 16:03:29;;;;;;;6.97;1.63;;;;;;;;;;13077408;22;20185;-80
2021/05/27 16:08:32;;;;;;;5.03;1.90;;;;;;;;;;13101619;22;20575;-80
2021/05/27 16:13:35;;;;;;;4.30;2.10;;;;;;;;;;13099717;22;20283;-82
2021/05/27 16:18:37;;;;;;;4.73;1.83;;;;;;;;;;13100788;22;20292;-82
2021/05/27 16:23:41;;;;;;;5.53;1.83;;;;;;;;;;13076824;22;20196;-82
2021/05/27 16:28:45;;;;;;;9.17;2.63;;;;;;;;;;13100306;22;20177;-82
2021/05/27 16:33:49;;;;;;;7.20;2.43;;;;;;;;;;13095958;22;20205;-83
2021/05/27 16:38:53;;;;;;;5.87;1.97;;;;;;;;;;13080630;22;20180;-84
2021/05/27 16:43:55;;;;;;;6.43;2.07;;;;;;;;;;13075976;22;20277;-82
2021/05/27 16:48:58;;;;;;;8.60;2.50;;;;;;;;;;13098586;22;20242;-82
2021/05/27 17:48:25;;;;;;;10.10;2.17;;;;;;;;;;13011723;22;20173;-78
2021/05/27 17:53:28;;;;;;;5.97;2.00;;;;;;;;;;13036540;22;20209;-79
2021/05/27 17:58:31;;;;;;;10.67;2.60;;;;;;;;;;13035218;22;20511;-79
2021/05/27 18:03:33;;;;;;;6.40;2.20;;;;;;;;;;13030648;22;20277;-79
2021/05/27 18:08:37;;;;;;;8.00;2.60;;;;;;;;;;13036504;22;20624;-78
2021/05/27 18:13:39;;;;;;;7.17;2.23;;;;;;;;;;13037444;22;20243;-79
2021/05/27 18:18:57;;;;;;;6.03;1.90;;;;;;;;;;13029571;22;20269;-78
2021/05/27 18:24:01;;;;;;;6.67;2.10;;;;;;;;;;13036466;22;20184;-79
2021/05/27 18:29:17;;;;;;;7.70;2.60;;;;;;;;;;13031508;22;20224;-80
2021/05/27 18:34:21;;;;;;;6.73;2.17;;;;;;;;;;13035564;22;20201;-81
2021/05/27 18:39:24;;;;;;;7.37;2.80;;;;;;;;;;13035216;22;20247;-79
2021/05/27 18:44:26;;;;;;;7.23;2.70;;;;;;;;;;13034095;22;20178;-78
2021/05/27 18:49:29;;;;;;;7.30;2.37;;;;;;;;;;13030529;22;20189;-79
2021/05/27 18:54:33;;;;;;;7.17;2.27;;;;;;;;;;13034720;22;20719;-78
2021/05/27 18:59:35;;;;;;;8.70;2.90;;;;;;;;;;13032934;22;20178;-80
2021/05/27 19:04:38;;;;;;;9.37;2.60;;;;;;;;;;13029817;22;20197;-78
2021/05/27 19:09:41;;;;;;;9.20;3.37;;;;;;;;;;13028504;22;20180;-79
2021/05/27 19:14:51;;;;;;;6.70;2.70;;;;;;;;;;13033749;22;20232;-81
2021/05/27 19:19:53;;;;;;;11.00;3.50;;;;;;;;;;13007408;22;20277;-78
2021/05/27 19:24:57;;;;;;;13.23;2.70;;;;;;;;;;13033514;22;20202;-81
2021/05/27 19:30:02;;;;;;;12.70;3.77;;;;;;;;;;13029096;22;20197;-78
2021/05/27 19:35:05;;;;;;;8.00;3.10;;;;;;;;;;13029939;22;20201;-81
2021/05/27 19:40:09;;;;;;;9.13;2.77;;;;;;;;;;13031337;22;20187;-80
2021/05/27 19:45:12;;;;;;;6.55;2.63;;;;;;;;;;13025848;22;20420;-80
2021/05/27 19:50:15;;;;;;;15.23;2.53;;;;;;;;;;13025340;22;20181;-78
2021/05/27 19:55:21;;;;;;;9.47;2.43;;;;;;;;;;13032278;22;20235;-80
2021/05/27 20:00:23;;;;;;;9.03;2.33;;;;;;;;;;13035923;22;20223;-79
2021/05/27 20:05:26;;;;;;;6.97;2.50;;;;;;;;;;13027099;22;20197;-79
2021/05/27 20:10:29;;;;;;;6.40;2.20;;;;;;;;;;13034652;22;20185;-79
2021/05/27 20:15:32;;;;;;;6.83;2.57;;;;;;;;;;13034418;22;20205;-78
2021/05/27 20:20:34;;;;;;;7.50;2.60;;;;;;;;;;13032069;22;20232;-78
2021/05/27 20:25:37;;;;;;;10.00;2.50;;;;;;;;;;13034980;22;20640;-79
2021/05/27 20:30:40;;;;;;;5.33;2.27;;;;;;;;;;13033124;22;20320;-79
2021/05/27 20:35:43;;;;;;;8.17;2.50;;;;;;;;;;13032114;22;20211;-79
2021/05/27 20:40:46;;;;;;;5.33;2.50;;;;;;;;;;13034022;22;20193;-79
2021/05/27 20:45:49;;;;;;;8.27;2.70;;;;;;;;;;13034757;22;20256;-78
2021/05/27 20:50:52;;;;;;;7.80;2.60;;;;;;;;;;13036793;22;20303;-79
2021/05/27 20:55:55;;;;;;;5.60;2.60;;;;;;;;;;13039594;22;20236;-79
2021/05/27 21:00:57;;;;;;;6.80;2.37;;;;;;;;;;13035486;22;20904;-79
2021/05/27 21:06:00;;;;;;;9.53;2.87;;;;;;;;;;13037744;22;20206;-80
2021/05/27 21:11:04;;;;;;;5.77;2.50;;;;;;;;;;13036680;22;20256;-78
2021/05/27 21:16:07;;;;;;;9.13;2.93;;;;;;;;;;13035049;22;20356;-78
2021/05/27 21:21:09;;;;;;;9.87;3.17;;;;;;;;;;13036018;22;20676;-78
2021/05/27 21:26:14;;;;;;;9.73;2.97;;;;;;;;;;13038093;22;20592;-78
2021/05/27 21:31:16;;;;;;;7.43;3.10;;;;;;;;;;13030537;22;20476;-78
2021/05/27 21:36:19;;;;;;;11.73;3.30;;;;;;;;;;13035310;22;20723;-78
2021/05/27 21:41:23;;;;;;;7.80;2.97;;;;;;;;;;13034669;22;20253;-79
2021/05/27 21:46:27;;;;;;;6.67;2.70;;;;;;;;;;13033367;22;20648;-79
2021/05/27 21:51:29;;;;;;;7.67;2.87;;;;;;;;;;13033031;22;20192;-79
2021/05/27 21:56:33;;;;;;;10.63;3.60;;;;;;;;;;13037927;22;20206;-79
2021/05/27 22:01:36;;;;;;;8.20;3.27;;;;;;;;;;13032410;22;20576;-78
2021/05/27 22:06:38;;;;;;;7.93;3.43;;;;;;;;;;13037109;22;20174;-79
2021/05/27 22:11:42;;;;;;;9.73;3.37;;;;;;;;;;13035964;22;20284;-80
2021/05/27 22:16:44;;;;;;;9.77;3.80;;;;;;;;;;13033858;22;20284;-80
2021/05/27 22:21:48;;;;;;;10.07;3.97;;;;;;;;;;13035299;22;20793;-79
2021/05/27 22:26:52;;;;;;;10.87;3.73;;;;;;;;;;13037677;22;20666;-79
2021/05/27 22:31:54;;;;;;;9.03;3.83;;;;;;;;;;13033203;22;20174;-80
2021/05/27 22:36:57;;;;;;;8.33;4.43;;;;;;;;;;13035822;22;20532;-80
2021/05/27 22:42:01;;;;;;;8.07;3.60;;;;;;;;;;13036718;22;20189;-80
2021/05/27 22:47:04;;;;;;;9.37;3.37;;;;;;;;;;13034554;22;20646;-78
2021/05/27 22:52:06;;;;;;;9.20;3.90;;;;;;;;;;13033557;22;20178;-79
2021/05/27 22:57:10;;;;;;;12.73;4.37;;;;;;;;;;13031570;22;20545;-78
2021/05/27 23:02:13;;;;;;;8.73;3.80;;;;;;;;;;13033255;22;20239;-79
2021/05/27 23:07:15;;;;;;;7.50;3.43;;;;;;;;;;13034519;22;20173;-79
2021/05/27 23:12:18;;;;;;;8.47;3.70;;;;;;;;;;13035024;22;20808;-79
2021/05/27 23:17:24;;;;;;;8.07;3.70;;;;;;;;;;13029951;22;20280;-80
2021/05/27 23:22:29;;;;;;;7.20;3.30;;;;;;;;;;13034943;22;20593;-79
2021/05/27 23:27:33;;;;;;;5.90;3.47;;;;;;;;;;13031517;22;20181;-79
2021/05/27 23:32:37;;;;;;;9.37;3.67;;;;;;;;;;13032309;22;20455;-79
2021/05/27 23:37:41;;;;;;;8.37;3.97;;;;;;;;;;13033388;22;20204;-79
2021/05/27 23:42:45;;;;;;;11.00;4.03;;;;;;;;;;13035558;22;20205;-79
2021/05/27 23:47:47;;;;;;;12.77;4.00;;;;;;;;;;13029495;22;20174;-78
2021/05/27 23:52:50;;;;;;;8.57;4.20;;;;;;;;;;13031838;22;20244;-78
2021/05/27 23:57:53;;;;;;;10.97;4.00;;;;;;;;;;13031890;22;20201;-77
